ADDS TAF Data INFO
IDs: Format: Raw Decoded Include METARs

Data at: 0138 UTC 26 Apr 2018

TAF AMD ETSI 251509Z 2514/2523 29015G30KT 9999 NSW SCT050 SCT080
  BECMG 2515/2517 28012KT 9999 NSW FEW025 BKN060 CANCEL 1600